sensor_id;sensor_type;location;lat;lon;timestamp;P1;durP1;ratioP1;P2;durP2;ratioP2
58362;SDS011;54977;51.510;7.522;2022-12-08T00:02:40;20.23;;;9.43;;
58362;SDS011;54977;51.510;7.522;2022-12-08T00:07:44;16.58;;;9.00;;
58362;SDS011;54977;51.510;7.522;2022-12-08T00:13:18;16.95;;;9.15;;
58362;SDS011;54977;51.510;7.522;2022-12-08T00:18:20;21.75;;;10.18;;
58362;SDS011;54977;51.510;7.522;2022-12-08T00:23:23;19.92;;;10.27;;
58362;SDS011;54977;51.510;7.522;2022-12-08T00:28:25;19.58;;;10.23;;
58362;SDS011;54977;51.510;7.522;2022-12-08T00:33:27;23.80;;;11.55;;
58362;SDS011;54977;51.510;7.522;2022-12-08T00:38:30;19.55;;;10.43;;
58362;SDS011;54977;51.510;7.522;2022-12-08T00:43:32;20.08;;;11.45;;
58362;SDS011;54977;51.510;7.522;2022-12-08T00:48:34;26.83;;;12.63;;
58362;SDS011;54977;51.510;7.522;2022-12-08T00:53:37;25.30;;;12.57;;
58362;SDS011;54977;51.510;7.522;2022-12-08T00:58:39;27.33;;;12.00;;
58362;SDS011;54977;51.510;7.522;2022-12-08T01:03:41;28.73;;;13.10;;
58362;SDS011;54977;51.510;7.522;2022-12-08T01:08:45;26.02;;;11.98;;
58362;SDS011;54977;51.510;7.522;2022-12-08T01:13:46;28.27;;;12.30;;
58362;SDS011;54977;51.510;7.522;2022-12-08T01:18:48;24.65;;;12.13;;
58362;SDS011;54977;51.510;7.522;2022-12-08T01:28:53;24.27;;;12.52;;
58362;SDS011;54977;51.510;7.522;2022-12-08T01:39:00;24.23;;;12.15;;
58362;SDS011;54977;51.510;7.522;2022-12-08T01:44:45;26.75;;;11.35;;
58362;SDS011;54977;51.510;7.522;2022-12-08T01:49:25;18.67;;;10.57;;
58362;SDS011;54977;51.510;7.522;2022-12-08T01:54:32;23.27;;;12.73;;
58362;SDS011;54977;51.510;7.522;2022-12-08T01:59:37;21.15;;;11.20;;
58362;SDS011;54977;51.510;7.522;2022-12-08T02:04:44;17.92;;;9.32;;
58362;SDS011;54977;51.510;7.522;2022-12-08T02:09:48;19.80;;;10.60;;
58362;SDS011;54977;51.510;7.522;2022-12-08T02:14:50;18.10;;;8.93;;
58362;SDS011;54977;51.510;7.522;2022-12-08T02:20:06;20.58;;;10.82;;
58362;SDS011;54977;51.510;7.522;2022-12-08T02:25:17;22.97;;;10.97;;
58362;SDS011;54977;51.510;7.522;2022-12-08T02:30:23;24.67;;;10.32;;
58362;SDS011;54977;51.510;7.522;2022-12-08T02:35:28;21.80;;;11.15;;
58362;SDS011;54977;51.510;7.522;2022-12-08T02:40:35;24.42;;;12.07;;
58362;SDS011;54977;51.510;7.522;2022-12-08T02:45:40;20.92;;;11.23;;
58362;SDS011;54977;51.510;7.522;2022-12-08T02:50:45;21.95;;;10.43;;
58362;SDS011;54977;51.510;7.522;2022-12-08T02:55:50;20.88;;;11.35;;
58362;SDS011;54977;51.510;7.522;2022-12-08T03:00:59;23.30;;;11.57;;
58362;SDS011;54977;51.510;7.522;2022-12-08T03:06:18;19.92;;;11.68;;
58362;SDS011;54977;51.510;7.522;2022-12-08T03:11:30;21.05;;;11.05;;
58362;SDS011;54977;51.510;7.522;2022-12-08T03:16:35;21.92;;;10.68;;
58362;SDS011;54977;51.510;7.522;2022-12-08T03:21:43;20.23;;;10.65;;
58362;SDS011;54977;51.510;7.522;2022-12-08T03:26:47;21.92;;;11.82;;
58362;SDS011;54977;51.510;7.522;2022-12-08T03:31:52;17.85;;;9.02;;
58362;SDS011;54977;51.510;7.522;2022-12-08T03:36:57;23.40;;;10.38;;
58362;SDS011;54977;51.510;7.522;2022-12-08T03:42:03;23.02;;;11.02;;
58362;SDS011;54977;51.510;7.522;2022-12-08T03:47:05;22.63;;;10.45;;
58362;SDS011;54977;51.510;7.522;2022-12-08T03:52:08;22.55;;;10.70;;
58362;SDS011;54977;51.510;7.522;2022-12-08T03:57:11;20.98;;;10.20;;
58362;SDS011;54977;51.510;7.522;2022-12-08T04:07:16;21.88;;;10.00;;
58362;SDS011;54977;51.510;7.522;2022-12-08T04:12:18;23.60;;;9.88;;
58362;SDS011;54977;51.510;7.522;2022-12-08T04:22:24;18.95;;;8.27;;
58362;SDS011;54977;51.510;7.522;2022-12-08T04:27:25;19.10;;;9.52;;
58362;SDS011;54977;51.510;7.522;2022-12-08T04:32:29;22.42;;;9.57;;
58362;SDS011;54977;51.510;7.522;2022-12-08T04:37:32;18.48;;;8.52;;
58362;SDS011;54977;51.510;7.522;2022-12-08T04:42:34;18.75;;;8.77;;
58362;SDS011;54977;51.510;7.522;2022-12-08T04:52:39;14.70;;;7.47;;
58362;SDS011;54977;51.510;7.522;2022-12-08T04:57:42;19.80;;;8.80;;
58362;SDS011;54977;51.510;7.522;2022-12-08T05:02:43;19.58;;;8.70;;
58362;SDS011;54977;51.510;7.522;2022-12-08T05:07:47;16.60;;;8.10;;
58362;SDS011;54977;51.510;7.522;2022-12-08T05:12:48;17.52;;;7.80;;
58362;SDS011;54977;51.510;7.522;2022-12-08T05:17:50;18.52;;;8.30;;
58362;SDS011;54977;51.510;7.522;2022-12-08T05:22:54;15.35;;;6.63;;
58362;SDS011;54977;51.510;7.522;2022-12-08T05:27:55;15.65;;;8.30;;
58362;SDS011;54977;51.510;7.522;2022-12-08T05:32:57;13.57;;;6.53;;
58362;SDS011;54977;51.510;7.522;2022-12-08T05:38:01;15.65;;;6.18;;
58362;SDS011;54977;51.510;7.522;2022-12-08T05:43:02;13.30;;;6.63;;
58362;SDS011;54977;51.510;7.522;2022-12-08T05:48:04;14.88;;;6.35;;
58362;SDS011;54977;51.510;7.522;2022-12-08T05:53:08;11.65;;;5.40;;
58362;SDS011;54977;51.510;7.522;2022-12-08T05:58:10;12.98;;;6.60;;
58362;SDS011;54977;51.510;7.522;2022-12-08T06:03:14;14.52;;;5.80;;
58362;SDS011;54977;51.510;7.522;2022-12-08T06:08:19;13.68;;;7.10;;
58362;SDS011;54977;51.510;7.522;2022-12-08T06:13:20;13.23;;;7.10;;
58362;SDS011;54977;51.510;7.522;2022-12-08T06:18:22;15.38;;;6.13;;
58362;SDS011;54977;51.510;7.522;2022-12-08T06:23:25;14.15;;;7.13;;
58362;SDS011;54977;51.510;7.522;2022-12-08T06:28:27;14.45;;;7.13;;
58362;SDS011;54977;51.510;7.522;2022-12-08T06:38:32;16.77;;;7.47;;
58362;SDS011;54977;51.510;7.522;2022-12-08T06:43:34;16.30;;;7.45;;
58362;SDS011;54977;51.510;7.522;2022-12-08T06:48:36;14.60;;;7.97;;
58362;SDS011;54977;51.510;7.522;2022-12-08T06:53:40;16.35;;;7.75;;
58362;SDS011;54977;51.510;7.522;2022-12-08T06:58:42;17.45;;;7.75;;
58362;SDS011;54977;51.510;7.522;2022-12-08T07:03:44;14.15;;;7.07;;
58362;SDS011;54977;51.510;7.522;2022-12-08T07:08:48;15.63;;;7.45;;
58362;SDS011;54977;51.510;7.522;2022-12-08T07:13:50;13.98;;;5.68;;
58362;SDS011;54977;51.510;7.522;2022-12-08T07:18:51;10.27;;;5.43;;
58362;SDS011;54977;51.510;7.522;2022-12-08T07:23:55;12.07;;;6.35;;
58362;SDS011;54977;51.510;7.522;2022-12-08T07:28:56;11.02;;;5.70;;
58362;SDS011;54977;51.510;7.522;2022-12-08T07:34:00;10.35;;;5.60;;
58362;SDS011;54977;51.510;7.522;2022-12-08T07:39:03;10.65;;;5.05;;
58362;SDS011;54977;51.510;7.522;2022-12-08T07:44:05;13.38;;;5.63;;
58362;SDS011;54977;51.510;7.522;2022-12-08T07:49:07;13.98;;;6.93;;
58362;SDS011;54977;51.510;7.522;2022-12-08T07:54:11;14.77;;;5.60;;
58362;SDS011;54977;51.510;7.522;2022-12-08T07:59:13;12.63;;;6.07;;
58362;SDS011;54977;51.510;7.522;2022-12-08T08:04:15;15.27;;;6.38;;
58362;SDS011;54977;51.510;7.522;2022-12-08T08:09:18;12.80;;;5.80;;
58362;SDS011;54977;51.510;7.522;2022-12-08T08:14:20;12.38;;;5.68;;
58362;SDS011;54977;51.510;7.522;2022-12-08T08:19:22;15.65;;;6.63;;
58362;SDS011;54977;51.510;7.522;2022-12-08T08:24:25;12.63;;;6.43;;
58362;SDS011;54977;51.510;7.522;2022-12-08T08:29:27;14.68;;;6.80;;
58362;SDS011;54977;51.510;7.522;2022-12-08T08:34:29;14.60;;;7.32;;
58362;SDS011;54977;51.510;7.522;2022-12-08T08:49:36;10.52;;;5.63;;
58362;SDS011;54977;51.510;7.522;2022-12-08T08:54:39;13.63;;;6.80;;
58362;SDS011;54977;51.510;7.522;2022-12-08T08:59:41;12.13;;;5.70;;
58362;SDS011;54977;51.510;7.522;2022-12-08T09:04:43;12.93;;;6.45;;
58362;SDS011;54977;51.510;7.522;2022-12-08T09:19:50;12.13;;;6.13;;
58362;SDS011;54977;51.510;7.522;2022-12-08T09:24:54;11.05;;;5.40;;
58362;SDS011;54977;51.510;7.522;2022-12-08T09:29:55;16.85;;;7.90;;
58362;SDS011;54977;51.510;7.522;2022-12-08T09:34:57;9.68;;;5.28;;
58362;SDS011;54977;51.510;7.522;2022-12-08T09:40:01;9.77;;;5.60;;
58362;SDS011;54977;51.510;7.522;2022-12-08T09:45:07;11.55;;;5.85;;
58362;SDS011;54977;51.510;7.522;2022-12-08T09:50:12;10.07;;;4.18;;
58362;SDS011;54977;51.510;7.522;2022-12-08T09:55:21;9.60;;;5.32;;
58362;SDS011;54977;51.510;7.522;2022-12-08T10:00:34;10.45;;;5.32;;
58362;SDS011;54977;51.510;7.522;2022-12-08T10:10:44;7.35;;;5.00;;
58362;SDS011;54977;51.510;7.522;2022-12-08T10:15:50;16.23;;;6.65;;
58362;SDS011;54977;51.510;7.522;2022-12-08T10:20:59;8.60;;;5.30;;
58362;SDS011;54977;51.510;7.522;2022-12-08T10:26:15;9.90;;;5.05;;
58362;SDS011;54977;51.510;7.522;2022-12-08T10:31:19;10.30;;;5.32;;
58362;SDS011;54977;51.510;7.522;2022-12-08T10:36:22;10.52;;;5.68;;
58362;SDS011;54977;51.510;7.522;2022-12-08T10:41:25;8.68;;;5.30;;
58362;SDS011;54977;51.510;7.522;2022-12-08T10:46:27;11.02;;;5.47;;
58362;SDS011;54977;51.510;7.522;2022-12-08T10:51:35;11.35;;;5.68;;
58362;SDS011;54977;51.510;7.522;2022-12-08T10:56:40;14.48;;;6.38;;
58362;SDS011;54977;51.510;7.522;2022-12-08T11:01:55;10.40;;;4.93;;
58362;SDS011;54977;51.510;7.522;2022-12-08T11:06:57;10.38;;;5.28;;
58362;SDS011;54977;51.510;7.522;2022-12-08T11:12:04;9.38;;;4.78;;
58362;SDS011;54977;51.510;7.522;2022-12-08T11:17:08;8.68;;;4.25;;
58362;SDS011;54977;51.510;7.522;2022-12-08T11:22:23;11.23;;;5.78;;
58362;SDS011;54977;51.510;7.522;2022-12-08T11:27:27;10.13;;;5.53;;
58362;SDS011;54977;51.510;7.522;2022-12-08T11:32:29;10.50;;;5.55;;
58362;SDS011;54977;51.510;7.522;2022-12-08T11:37:32;10.43;;;5.78;;
58362;SDS011;54977;51.510;7.522;2022-12-08T11:42:42;10.93;;;5.38;;
58362;SDS011;54977;51.510;7.522;2022-12-08T11:47:57;11.18;;;5.53;;
58362;SDS011;54977;51.510;7.522;2022-12-08T11:53:07;9.77;;;5.80;;
58362;SDS011;54977;51.510;7.522;2022-12-08T11:58:20;12.87;;;6.53;;
58362;SDS011;54977;51.510;7.522;2022-12-08T12:03:26;10.63;;;4.80;;
58362;SDS011;54977;51.510;7.522;2022-12-08T12:08:38;10.65;;;5.60;;
58362;SDS011;54977;51.510;7.522;2022-12-08T12:13:53;11.82;;;5.75;;
58362;SDS011;54977;51.510;7.522;2022-12-08T12:19:03;12.70;;;5.97;;
58362;SDS011;54977;51.510;7.522;2022-12-08T12:24:14;10.85;;;6.15;;
58362;SDS011;54977;51.510;7.522;2022-12-08T12:29:21;11.60;;;6.05;;
58362;SDS011;54977;51.510;7.522;2022-12-08T12:34:25;11.73;;;6.05;;
58362;SDS011;54977;51.510;7.522;2022-12-08T12:39:31;10.50;;;5.35;;
58362;SDS011;54977;51.510;7.522;2022-12-08T12:44:45;10.65;;;6.05;;
58362;SDS011;54977;51.510;7.522;2022-12-08T13:01:09;7.32;;;3.80;;
58362;SDS011;54977;51.510;7.522;2022-12-08T13:06:53;4.45;;;2.92;;
58362;SDS011;54977;51.510;7.522;2022-12-08T13:11:56;6.60;;;2.92;;
58362;SDS011;54977;51.510;7.522;2022-12-08T13:17:03;4.75;;;2.53;;
58362;SDS011;54977;51.510;7.522;2022-12-08T13:27:53;5.18;;;2.72;;
58362;SDS011;54977;51.510;7.522;2022-12-08T13:32:56;5.95;;;3.20;;
58362;SDS011;54977;51.510;7.522;2022-12-08T13:38:01;6.72;;;3.38;;
58362;SDS011;54977;51.510;7.522;2022-12-08T13:43:05;6.72;;;3.30;;
58362;SDS011;54977;51.510;7.522;2022-12-08T13:48:18;6.00;;;2.80;;
58362;SDS011;54977;51.510;7.522;2022-12-08T13:53:27;6.28;;;3.03;;
58362;SDS011;54977;51.510;7.522;2022-12-08T13:58:32;9.07;;;3.08;;
58362;SDS011;54977;51.510;7.522;2022-12-08T14:03:43;5.43;;;3.00;;
58362;SDS011;54977;51.510;7.522;2022-12-08T14:08:50;8.27;;;3.33;;
58362;SDS011;54977;51.510;7.522;2022-12-08T14:13:55;9.02;;;5.07;;
58362;SDS011;54977;51.510;7.522;2022-12-08T14:19:03;9.05;;;4.35;;
58362;SDS011;54977;51.510;7.522;2022-12-08T14:24:07;10.75;;;5.82;;
58362;SDS011;54977;51.510;7.522;2022-12-08T14:29:11;10.95;;;5.25;;
58362;SDS011;54977;51.510;7.522;2022-12-08T14:34:35;13.00;;;6.93;;
58362;SDS011;54977;51.510;7.522;2022-12-08T14:39:39;13.10;;;6.85;;
58362;SDS011;54977;51.510;7.522;2022-12-08T14:44:41;10.27;;;5.85;;
58362;SDS011;54977;51.510;7.522;2022-12-08T14:49:46;16.02;;;7.03;;
58362;SDS011;54977;51.510;7.522;2022-12-08T14:54:48;14.45;;;6.95;;
58362;SDS011;54977;51.510;7.522;2022-12-08T14:59:51;14.13;;;7.38;;
58362;SDS011;54977;51.510;7.522;2022-12-08T15:04:56;16.27;;;7.18;;
58362;SDS011;54977;51.510;7.522;2022-12-08T15:10:17;14.10;;;7.32;;
58362;SDS011;54977;51.510;7.522;2022-12-08T15:15:22;15.98;;;7.47;;
58362;SDS011;54977;51.510;7.522;2022-12-08T15:25:30;15.95;;;6.95;;
58362;SDS011;54977;51.510;7.522;2022-12-08T15:30:32;20.05;;;8.32;;
58362;SDS011;54977;51.510;7.522;2022-12-08T15:35:35;12.20;;;6.13;;
58362;SDS011;54977;51.510;7.522;2022-12-08T15:40:37;13.60;;;6.28;;
58362;SDS011;54977;51.510;7.522;2022-12-08T15:45:39;10.88;;;6.15;;
58362;SDS011;54977;51.510;7.522;2022-12-08T15:55:44;12.13;;;6.60;;
58362;SDS011;54977;51.510;7.522;2022-12-08T16:00:47;13.65;;;6.10;;
58362;SDS011;54977;51.510;7.522;2022-12-08T16:05:50;14.63;;;6.60;;
58362;SDS011;54977;51.510;7.522;2022-12-08T16:10:52;18.27;;;7.28;;
58362;SDS011;54977;51.510;7.522;2022-12-08T16:16:15;13.15;;;7.18;;
58362;SDS011;54977;51.510;7.522;2022-12-08T16:21:21;18.60;;;8.55;;
58362;SDS011;54977;51.510;7.522;2022-12-08T16:26:24;18.60;;;7.72;;
58362;SDS011;54977;51.510;7.522;2022-12-08T16:31:26;18.08;;;9.07;;
58362;SDS011;54977;51.510;7.522;2022-12-08T16:36:29;20.95;;;8.77;;
58362;SDS011;54977;51.510;7.522;2022-12-08T16:41:31;17.88;;;8.32;;
58362;SDS011;54977;51.510;7.522;2022-12-08T16:46:52;17.65;;;7.85;;
58362;SDS011;54977;51.510;7.522;2022-12-08T16:51:55;19.23;;;8.13;;
58362;SDS011;54977;51.510;7.522;2022-12-08T16:56:57;17.58;;;9.05;;
58362;SDS011;54977;51.510;7.522;2022-12-08T17:01:59;17.50;;;8.85;;
58362;SDS011;54977;51.510;7.522;2022-12-08T17:07:03;18.52;;;9.05;;
58362;SDS011;54977;51.510;7.522;2022-12-08T17:12:05;20.75;;;9.68;;
58362;SDS011;54977;51.510;7.522;2022-12-08T17:17:07;21.25;;;10.18;;
58362;SDS011;54977;51.510;7.522;2022-12-08T17:22:11;23.05;;;10.65;;
58362;SDS011;54977;51.510;7.522;2022-12-08T17:27:13;24.38;;;9.95;;
58362;SDS011;54977;51.510;7.522;2022-12-08T17:32:15;17.60;;;8.68;;
58362;SDS011;54977;51.510;7.522;2022-12-08T17:37:20;18.98;;;9.20;;
58362;SDS011;54977;51.510;7.522;2022-12-08T17:42:22;16.98;;;9.45;;
58362;SDS011;54977;51.510;7.522;2022-12-08T17:47:26;24.10;;;11.27;;
58362;SDS011;54977;51.510;7.522;2022-12-08T17:52:29;26.55;;;11.65;;
58362;SDS011;54977;51.510;7.522;2022-12-08T17:57:31;21.00;;;10.27;;
58362;SDS011;54977;51.510;7.522;2022-12-08T18:02:32;27.23;;;11.98;;
58362;SDS011;54977;51.510;7.522;2022-12-08T18:07:38;23.90;;;11.85;;
58362;SDS011;54977;51.510;7.522;2022-12-08T18:12:40;22.90;;;11.27;;
58362;SDS011;54977;51.510;7.522;2022-12-08T18:22:45;21.08;;;10.45;;
58362;SDS011;54977;51.510;7.522;2022-12-08T18:27:47;29.77;;;11.25;;
58362;SDS011;54977;51.510;7.522;2022-12-08T18:32:49;28.42;;;11.27;;
58362;SDS011;54977;51.510;7.522;2022-12-08T18:37:52;23.70;;;11.77;;
58362;SDS011;54977;51.510;7.522;2022-12-08T18:42:54;31.25;;;12.13;;
58362;SDS011;54977;51.510;7.522;2022-12-08T18:47:56;21.02;;;10.23;;
58362;SDS011;54977;51.510;7.522;2022-12-08T18:52:59;23.85;;;10.60;;
58362;SDS011;54977;51.510;7.522;2022-12-08T18:58:01;28.88;;;12.45;;
58362;SDS011;54977;51.510;7.522;2022-12-08T19:03:03;23.58;;;9.85;;
58362;SDS011;54977;51.510;7.522;2022-12-08T19:08:06;23.42;;;12.30;;
58362;SDS011;54977;51.510;7.522;2022-12-08T19:13:08;20.90;;;11.25;;
58362;SDS011;54977;51.510;7.522;2022-12-08T19:18:11;29.05;;;11.10;;
58362;SDS011;54977;51.510;7.522;2022-12-08T19:23:14;20.23;;;10.82;;
58362;SDS011;54977;51.510;7.522;2022-12-08T19:28:16;22.17;;;10.25;;
58362;SDS011;54977;51.510;7.522;2022-12-08T19:33:18;24.48;;;10.82;;
58362;SDS011;54977;51.510;7.522;2022-12-08T19:38:22;26.40;;;12.10;;
58362;SDS011;54977;51.510;7.522;2022-12-08T19:43:24;20.60;;;10.50;;
58362;SDS011;54977;51.510;7.522;2022-12-08T19:48:46;24.23;;;11.87;;
58362;SDS011;54977;51.510;7.522;2022-12-08T19:53:49;24.67;;;11.23;;
58362;SDS011;54977;51.510;7.522;2022-12-08T19:58:51;22.73;;;10.88;;
58362;SDS011;54977;51.510;7.522;2022-12-08T20:03:53;22.30;;;11.43;;
58362;SDS011;54977;51.510;7.522;2022-12-08T20:08:56;20.50;;;10.27;;
58362;SDS011;54977;51.510;7.522;2022-12-08T20:13:58;22.65;;;11.50;;
58362;SDS011;54977;51.510;7.522;2022-12-08T20:19:00;22.80;;;10.80;;
58362;SDS011;54977;51.510;7.522;2022-12-08T20:24:04;22.83;;;10.90;;
58362;SDS011;54977;51.510;7.522;2022-12-08T20:29:06;24.75;;;11.98;;
58362;SDS011;54977;51.510;7.522;2022-12-08T20:39:15;25.30;;;11.27;;
58362;SDS011;54977;51.510;7.522;2022-12-08T20:44:18;24.63;;;10.82;;
58362;SDS011;54977;51.510;7.522;2022-12-08T20:49:19;27.20;;;12.43;;
58362;SDS011;54977;51.510;7.522;2022-12-08T20:59:24;22.05;;;10.27;;
58362;SDS011;54977;51.510;7.522;2022-12-08T21:04:26;26.90;;;13.32;;
58362;SDS011;54977;51.510;7.522;2022-12-08T21:09:30;23.48;;;10.95;;
58362;SDS011;54977;51.510;7.522;2022-12-08T21:14:31;23.15;;;10.95;;
58362;SDS011;54977;51.510;7.522;2022-12-08T21:19:34;22.52;;;11.27;;
58362;SDS011;54977;51.510;7.522;2022-12-08T21:24:37;20.75;;;11.85;;
58362;SDS011;54977;51.510;7.522;2022-12-08T21:29:39;18.63;;;9.35;;
58362;SDS011;54977;51.510;7.522;2022-12-08T21:34:41;17.90;;;9.55;;
58362;SDS011;54977;51.510;7.522;2022-12-08T21:44:46;21.52;;;10.68;;
58362;SDS011;54977;51.510;7.522;2022-12-08T21:49:48;17.10;;;9.30;;
58362;SDS011;54977;51.510;7.522;2022-12-08T21:54:51;15.52;;;9.25;;
58362;SDS011;54977;51.510;7.522;2022-12-08T21:59:53;17.92;;;10.13;;
58362;SDS011;54977;51.510;7.522;2022-12-08T22:04:54;25.27;;;9.80;;
58362;SDS011;54977;51.510;7.522;2022-12-08T22:09:58;21.27;;;9.95;;
58362;SDS011;54977;51.510;7.522;2022-12-08T22:14:59;19.52;;;10.85;;
58362;SDS011;54977;51.510;7.522;2022-12-08T22:20:04;23.60;;;10.85;;
58362;SDS011;54977;51.510;7.522;2022-12-08T22:25:09;19.55;;;10.60;;
58362;SDS011;54977;51.510;7.522;2022-12-08T22:30:11;21.17;;;9.90;;
58362;SDS011;54977;51.510;7.522;2022-12-08T22:40:16;17.80;;;10.32;;
58362;SDS011;54977;51.510;7.522;2022-12-08T22:45:18;19.75;;;9.80;;
58362;SDS011;54977;51.510;7.522;2022-12-08T22:50:20;22.23;;;10.30;;
58362;SDS011;54977;51.510;7.522;2022-12-08T22:55:23;21.23;;;9.82;;
58362;SDS011;54977;51.510;7.522;2022-12-08T23:00:25;26.13;;;10.85;;
58362;SDS011;54977;51.510;7.522;2022-12-08T23:05:30;23.40;;;12.05;;
58362;SDS011;54977;51.510;7.522;2022-12-08T23:10:34;20.65;;;10.50;;
58362;SDS011;54977;51.510;7.522;2022-12-08T23:15:36;24.08;;;11.52;;
58362;SDS011;54977;51.510;7.522;2022-12-08T23:25:42;19.67;;;10.20;;
58362;SDS011;54977;51.510;7.522;2022-12-08T23:30:44;25.58;;;11.15;;
58362;SDS011;54977;51.510;7.522;2022-12-08T23:35:53;23.70;;;11.90;;
58362;SDS011;54977;51.510;7.522;2022-12-08T23:41:00;24.88;;;11.52;;
58362;SDS011;54977;51.510;7.522;2022-12-08T23:46:02;27.50;;;12.02;;
58362;SDS011;54977;51.510;7.522;2022-12-08T23:51:04;27.52;;;11.75;;
58362;SDS011;54977;51.510;7.522;2022-12-08T23:56:09;26.52;;;11.90;;
